sensor_id;sensor_type;location;lat;lon;timestamp;pressure;altitude;pressure_sealevel;temperature;humidity
70968;BME280;58629;48.808;8.820;2022-09-13T00:01:02;96759.59;;;11.58;93.25
70968;BME280;58629;48.808;8.820;2022-09-13T00:03:28;96756.09;;;11.61;92.91
70968;BME280;58629;48.808;8.820;2022-09-13T00:05:53;96752.69;;;11.61;92.80
70968;BME280;58629;48.808;8.820;2022-09-13T00:08:18;96755.44;;;11.57;91.97
70968;BME280;58629;48.808;8.820;2022-09-13T00:10:45;96764.25;;;11.54;91.61
70968;BME280;58629;48.808;8.820;2022-09-13T00:13:13;96751.31;;;11.56;92.37
70968;BME280;58629;48.808;8.820;2022-09-13T00:15:46;96753.88;;;11.60;92.70
70968;BME280;58629;48.808;8.820;2022-09-13T00:18:12;96755.78;;;11.59;92.97
70968;BME280;58629;48.808;8.820;2022-09-13T00:20:38;96755.22;;;11.52;91.96
70968;BME280;58629;48.808;8.820;2022-09-13T00:23:03;96759.47;;;11.49;93.01
70968;BME280;58629;48.808;8.820;2022-09-13T00:25:29;96753.44;;;11.49;93.02
70968;BME280;58629;48.808;8.820;2022-09-13T00:27:54;96751.44;;;11.53;92.75
70968;BME280;58629;48.808;8.820;2022-09-13T00:30:19;96747.59;;;11.54;92.41
70968;BME280;58629;48.808;8.820;2022-09-13T00:32:45;96746.13;;;11.53;92.19
70968;BME280;58629;48.808;8.820;2022-09-13T00:35:10;96740.50;;;11.51;92.51
70968;BME280;58629;48.808;8.820;2022-09-13T00:37:35;96739.84;;;11.47;92.39
70968;BME280;58629;48.808;8.820;2022-09-13T00:40:01;96731.47;;;11.48;92.15
70968;BME280;58629;48.808;8.820;2022-09-13T00:42:31;96732.63;;;11.47;91.69
70968;BME280;58629;48.808;8.820;2022-09-13T00:47:48;96718.00;;;11.43;91.83
70968;BME280;58629;48.808;8.820;2022-09-13T00:50:34;96724.03;;;11.43;92.26
70968;BME280;58629;48.808;8.820;2022-09-13T00:53:10;96727.94;;;11.39;91.75
70968;BME280;58629;48.808;8.820;2022-09-13T00:55:42;96718.50;;;11.38;92.85
70968;BME280;58629;48.808;8.820;2022-09-13T00:58:11;96707.16;;;11.37;92.01
70968;BME280;58629;48.808;8.820;2022-09-13T01:00:38;96717.75;;;11.37;92.32
70968;BME280;58629;48.808;8.820;2022-09-13T01:03:07;96722.72;;;11.35;92.42
70968;BME280;58629;48.808;8.820;2022-09-13T01:05:39;96712.53;;;11.33;92.43
70968;BME280;58629;48.808;8.820;2022-09-13T01:08:06;96720.72;;;11.26;92.16
70968;BME280;58629;48.808;8.820;2022-09-13T01:10:40;96716.00;;;11.18;92.51
70968;BME280;58629;48.808;8.820;2022-09-13T01:13:13;96719.72;;;11.20;93.20
70968;BME280;58629;48.808;8.820;2022-09-13T01:15:40;96722.72;;;11.22;93.70
70968;BME280;58629;48.808;8.820;2022-09-13T01:18:07;96726.84;;;11.23;93.31
70968;BME280;58629;48.808;8.820;2022-09-13T01:24:02;96719.19;;;11.25;93.55
70968;BME280;58629;48.808;8.820;2022-09-13T01:32:23;96718.97;;;11.20;91.97
70968;BME280;58629;48.808;8.820;2022-09-13T01:37:50;96722.22;;;11.11;92.84
70968;BME280;58629;48.808;8.820;2022-09-13T01:43:10;96734.16;;;11.03;93.94
70968;BME280;58629;48.808;8.820;2022-09-13T01:45:55;96727.31;;;11.06;93.47
70968;BME280;58629;48.808;8.820;2022-09-13T01:48:39;96728.06;;;11.06;93.89
70968;BME280;58629;48.808;8.820;2022-09-13T01:51:26;96723.91;;;11.05;93.19
70968;BME280;58629;48.808;8.820;2022-09-13T01:54:16;96718.28;;;11.03;93.42
70968;BME280;58629;48.808;8.820;2022-09-13T01:56:52;96718.78;;;10.98;93.61
70968;BME280;58629;48.808;8.820;2022-09-13T01:59:31;96721.53;;;10.95;93.24
70968;BME280;58629;48.808;8.820;2022-09-13T02:02:15;96731.91;;;10.89;92.93
70968;BME280;58629;48.808;8.820;2022-09-13T02:04:48;96723.69;;;10.84;92.97
70968;BME280;58629;48.808;8.820;2022-09-13T02:07:21;96742.75;;;10.79;93.97
70968;BME280;58629;48.808;8.820;2022-09-13T02:09:54;96739.69;;;10.64;94.05
70968;BME280;58629;48.808;8.820;2022-09-13T02:12:27;96737.72;;;10.52;94.80
70968;BME280;58629;48.808;8.820;2022-09-13T02:14:58;96731.94;;;10.57;94.91
70968;BME280;58629;48.808;8.820;2022-09-13T02:17:29;96734.84;;;10.63;95.49
70968;BME280;58629;48.808;8.820;2022-09-13T02:20:03;96733.66;;;10.64;94.71
70968;BME280;58629;48.808;8.820;2022-09-13T02:22:39;96732.19;;;10.63;93.80
70968;BME280;58629;48.808;8.820;2022-09-13T02:25:09;96728.78;;;10.62;93.40
70968;BME280;58629;48.808;8.820;2022-09-13T02:27:37;96731.44;;;10.62;93.74
70968;BME280;58629;48.808;8.820;2022-09-13T02:30:07;96735.41;;;10.54;93.56
70968;BME280;58629;48.808;8.820;2022-09-13T02:38:26;96737.56;;;10.59;94.00
70968;BME280;58629;48.808;8.820;2022-09-13T02:41:27;96735.34;;;10.58;94.64
70968;BME280;58629;48.808;8.820;2022-09-13T03:00:46;96709.69;;;10.55;94.30
70968;BME280;58629;48.808;8.820;2022-09-13T03:03:14;96705.22;;;10.52;94.06
70968;BME280;58629;48.808;8.820;2022-09-13T03:05:40;96706.56;;;10.43;92.82
70968;BME280;58629;48.808;8.820;2022-09-13T03:08:07;96706.22;;;10.41;93.60
70968;BME280;58629;48.808;8.820;2022-09-13T03:13:31;96699.00;;;10.42;93.52
70968;BME280;58629;48.808;8.820;2022-09-13T03:16:18;96698.63;;;10.43;93.79
70968;BME280;58629;48.808;8.820;2022-09-13T03:35:54;96703.16;;;10.27;94.72
70968;BME280;58629;48.808;8.820;2022-09-13T03:38:29;96697.53;;;10.25;94.55
70968;BME280;58629;48.808;8.820;2022-09-13T03:41:03;96696.13;;;10.20;94.22
70968;BME280;58629;48.808;8.820;2022-09-13T03:43:54;96698.78;;;10.20;94.26
70968;BME280;58629;48.808;8.820;2022-09-13T03:46:23;96701.94;;;10.15;94.14
70968;BME280;58629;48.808;8.820;2022-09-13T03:48:52;96691.47;;;10.08;94.22
70968;BME280;58629;48.808;8.820;2022-09-13T03:51:17;96698.06;;;10.00;94.14
70968;BME280;58629;48.808;8.820;2022-09-13T03:53:51;96694.69;;;10.00;94.95
70968;BME280;58629;48.808;8.820;2022-09-13T03:56:19;96680.22;;;10.04;95.10
70968;BME280;58629;48.808;8.820;2022-09-13T03:58:45;96685.91;;;10.03;95.53
70968;BME280;58629;48.808;8.820;2022-09-13T04:01:11;96688.16;;;10.04;95.12
70968;BME280;58629;48.808;8.820;2022-09-13T04:03:37;96681.63;;;9.93;94.99
70968;BME280;58629;48.808;8.820;2022-09-13T04:06:02;96679.97;;;9.99;95.71
70968;BME280;58629;48.808;8.820;2022-09-13T04:08:28;96684.91;;;9.97;95.66
70968;BME280;58629;48.808;8.820;2022-09-13T04:10:54;96680.38;;;9.97;95.25
70968;BME280;58629;48.808;8.820;2022-09-13T04:13:19;96685.66;;;9.97;95.44
70968;BME280;58629;48.808;8.820;2022-09-13T04:15:46;96694.84;;;9.93;95.49
70968;BME280;58629;48.808;8.820;2022-09-13T04:18:11;96703.28;;;9.88;96.56
70968;BME280;58629;48.808;8.820;2022-09-13T04:20:37;96717.97;;;9.89;96.73
70968;BME280;58629;48.808;8.820;2022-09-13T04:23:02;96719.13;;;9.88;98.08
70968;BME280;58629;48.808;8.820;2022-09-13T04:25:28;96706.91;;;9.94;98.27
70968;BME280;58629;48.808;8.820;2022-09-13T04:27:55;96695.84;;;9.99;97.84
70968;BME280;58629;48.808;8.820;2022-09-13T04:30:22;96703.78;;;9.99;96.88
70968;BME280;58629;48.808;8.820;2022-09-13T04:32:47;96696.41;;;10.26;100.00
70968;BME280;58629;48.808;8.820;2022-09-13T04:35:13;96696.22;;;10.49;100.00
70968;BME280;58629;48.808;8.820;2022-09-13T04:37:39;96699.56;;;10.66;99.55
70968;BME280;58629;48.808;8.820;2022-09-13T04:40:05;96703.16;;;10.88;98.92
70968;BME280;58629;48.808;8.820;2022-09-13T04:42:32;96705.75;;;10.91;96.44
70968;BME280;58629;48.808;8.820;2022-09-13T04:44:57;96703.97;;;10.56;94.88
70968;BME280;58629;48.808;8.820;2022-09-13T04:47:23;96712.56;;;10.60;96.36
70968;BME280;58629;48.808;8.820;2022-09-13T04:49:48;96722.88;;;10.87;98.90
70968;BME280;58629;48.808;8.820;2022-09-13T04:52:13;96722.09;;;11.02;96.83
70968;BME280;58629;48.808;8.820;2022-09-13T04:54:39;96715.78;;;11.12;95.64
70968;BME280;58629;48.808;8.820;2022-09-13T04:57:04;96704.25;;;11.19;94.74
70968;BME280;58629;48.808;8.820;2022-09-13T04:59:30;96717.50;;;11.19;93.95
70968;BME280;58629;48.808;8.820;2022-09-13T05:01:56;96719.34;;;11.34;94.42
70968;BME280;58629;48.808;8.820;2022-09-13T05:04:21;96722.28;;;11.24;93.74
70968;BME280;58629;48.808;8.820;2022-09-13T05:06:46;96717.25;;;11.42;93.93
70968;BME280;58629;48.808;8.820;2022-09-13T05:09:13;96719.06;;;11.58;92.80
70968;BME280;58629;48.808;8.820;2022-09-13T05:11:39;96724.34;;;11.74;92.21
70968;BME280;58629;48.808;8.820;2022-09-13T05:14:04;96720.31;;;11.82;91.58
70968;BME280;58629;48.808;8.820;2022-09-13T05:16:31;96729.88;;;11.92;90.15
70968;BME280;58629;48.808;8.820;2022-09-13T05:18:57;96728.06;;;12.01;89.49
70968;BME280;58629;48.808;8.820;2022-09-13T05:21:23;96732.31;;;12.11;88.27
70968;BME280;58629;48.808;8.820;2022-09-13T05:23:50;96734.34;;;12.20;88.26
70968;BME280;58629;48.808;8.820;2022-09-13T05:26:17;96733.25;;;12.30;88.15
70968;BME280;58629;48.808;8.820;2022-09-13T05:28:43;96734.19;;;12.36;87.80
70968;BME280;58629;48.808;8.820;2022-09-13T05:31:14;96731.53;;;12.36;87.21
70968;BME280;58629;48.808;8.820;2022-09-13T05:33:40;96744.09;;;12.23;84.78
70968;BME280;58629;48.808;8.820;2022-09-13T05:36:06;96750.47;;;11.88;85.92
70968;BME280;58629;48.808;8.820;2022-09-13T05:38:31;96750.03;;;11.61;87.95
70968;BME280;58629;48.808;8.820;2022-09-13T05:41:01;96739.63;;;11.82;90.70
70968;BME280;58629;48.808;8.820;2022-09-13T05:43:31;96749.16;;;11.92;89.21
70968;BME280;58629;48.808;8.820;2022-09-13T05:46:09;96736.97;;;12.07;89.21
70968;BME280;58629;48.808;8.820;2022-09-13T05:48:35;96731.56;;;12.24;88.37
70968;BME280;58629;48.808;8.820;2022-09-13T05:51:18;96732.59;;;12.26;87.17
70968;BME280;58629;48.808;8.820;2022-09-13T05:53:46;96732.19;;;12.40;87.39
70968;BME280;58629;48.808;8.820;2022-09-13T05:56:23;96733.75;;;12.50;86.76
70968;BME280;58629;48.808;8.820;2022-09-13T05:58:50;96741.41;;;12.61;86.95
70968;BME280;58629;48.808;8.820;2022-09-13T06:01:19;96749.88;;;12.68;86.93
70968;BME280;58629;48.808;8.820;2022-09-13T06:03:52;96757.94;;;12.77;86.75
70968;BME280;58629;48.808;8.820;2022-09-13T06:06:18;96750.47;;;12.85;86.33
70968;BME280;58629;48.808;8.820;2022-09-13T06:08:44;96754.09;;;12.91;86.21
70968;BME280;58629;48.808;8.820;2022-09-13T06:11:11;96756.50;;;12.98;86.17
70968;BME280;58629;48.808;8.820;2022-09-13T06:13:37;96758.97;;;13.05;86.16
70968;BME280;58629;48.808;8.820;2022-09-13T06:16:05;96761.94;;;13.07;85.26
70968;BME280;58629;48.808;8.820;2022-09-13T06:18:32;96753.53;;;13.09;85.27
70968;BME280;58629;48.808;8.820;2022-09-13T06:20:59;96748.97;;;12.96;85.00
70968;BME280;58629;48.808;8.820;2022-09-13T06:23:26;96746.31;;;12.84;83.44
70968;BME280;58629;48.808;8.820;2022-09-13T06:26:06;96749.84;;;12.81;84.70
70968;BME280;58629;48.808;8.820;2022-09-13T06:28:33;96752.19;;;12.79;86.09
70968;BME280;58629;48.808;8.820;2022-09-13T11:33:48;96673.59;;;25.97;36.70
70968;BME280;58629;48.808;8.820;2022-09-13T11:39:06;96670.31;;;25.72;36.58
70968;BME280;58629;48.808;8.820;2022-09-13T11:55:19;96672.44;;;25.29;38.02
70968;BME280;58629;48.808;8.820;2022-09-13T11:58:00;96673.31;;;25.37;38.30
70968;BME280;58629;48.808;8.820;2022-09-13T12:00:32;96669.94;;;25.50;38.37
70968;BME280;58629;48.808;8.820;2022-09-13T12:03:16;96670.28;;;25.59;39.00
70968;BME280;58629;48.808;8.820;2022-09-13T12:08:39;96663.53;;;25.66;38.22
70968;BME280;58629;48.808;8.820;2022-09-13T12:11:12;96659.59;;;25.93;39.28
70968;BME280;58629;48.808;8.820;2022-09-13T12:13:52;96652.84;;;26.00;38.86
70968;BME280;58629;48.808;8.820;2022-09-13T12:19:04;96660.03;;;25.84;43.17
70968;BME280;58629;48.808;8.820;2022-09-13T12:21:38;96645.03;;;26.09;44.53
70968;BME280;58629;48.808;8.820;2022-09-13T12:27:08;96636.69;;;26.59;42.77
70968;BME280;58629;48.808;8.820;2022-09-13T12:29:49;96629.38;;;26.54;40.46
70968;BME280;58629;48.808;8.820;2022-09-13T12:32:16;96632.13;;;26.28;43.13
70968;BME280;58629;48.808;8.820;2022-09-13T12:34:57;96623.75;;;26.39;42.76
70968;BME280;58629;48.808;8.820;2022-09-13T12:43:11;96600.44;;;26.70;41.47
70968;BME280;58629;48.808;8.820;2022-09-13T12:56:41;96579.25;;;27.23;39.06
70968;BME280;58629;48.808;8.820;2022-09-13T12:59:21;96578.50;;;27.22;36.59
70968;BME280;58629;48.808;8.820;2022-09-13T13:01:50;96577.78;;;27.22;38.21
70968;BME280;58629;48.808;8.820;2022-09-13T13:04:24;96581.69;;;27.13;39.56
70968;BME280;58629;48.808;8.820;2022-09-13T13:06:55;96571.78;;;27.36;37.24
70968;BME280;58629;48.808;8.820;2022-09-13T13:11:47;96579.69;;;27.76;36.03
70968;BME280;58629;48.808;8.820;2022-09-13T13:14:42;96572.59;;;27.73;36.39
70968;BME280;58629;48.808;8.820;2022-09-13T13:17:47;96566.31;;;28.06;36.80
70968;BME280;58629;48.808;8.820;2022-09-13T13:23:13;96571.22;;;28.51;37.56
70968;BME280;58629;48.808;8.820;2022-09-13T13:25:55;96565.88;;;28.73;35.42
70968;BME280;58629;48.808;8.820;2022-09-13T13:28:53;96558.09;;;28.77;36.67
70968;BME280;58629;48.808;8.820;2022-09-13T13:46:45;96553.56;;;28.80;34.32
70968;BME280;58629;48.808;8.820;2022-09-13T13:57:33;96549.63;;;29.19;35.90
70968;BME280;58629;48.808;8.820;2022-09-13T14:00:11;96544.00;;;29.24;34.05
70968;BME280;58629;48.808;8.820;2022-09-13T14:05:35;96541.41;;;28.96;37.13
70968;BME280;58629;48.808;8.820;2022-09-13T14:16:09;96535.16;;;28.58;35.08
70968;BME280;58629;48.808;8.820;2022-09-13T14:18:52;96535.16;;;28.58;34.55
70968;BME280;58629;48.808;8.820;2022-09-13T14:21:23;96532.44;;;28.65;37.71
70968;BME280;58629;48.808;8.820;2022-09-13T14:23:49;96524.31;;;28.95;35.78
70968;BME280;58629;48.808;8.820;2022-09-13T14:26:15;96529.06;;;29.10;35.47
70968;BME280;58629;48.808;8.820;2022-09-13T14:28:40;96519.63;;;29.03;33.85
70968;BME280;58629;48.808;8.820;2022-09-13T14:31:06;96519.06;;;28.97;35.11
70968;BME280;58629;48.808;8.820;2022-09-13T14:33:34;96512.31;;;28.83;36.66
70968;BME280;58629;48.808;8.820;2022-09-13T14:36:03;96513.94;;;28.71;35.91
70968;BME280;58629;48.808;8.820;2022-09-13T14:38:30;96508.56;;;28.43;36.65
70968;BME280;58629;48.808;8.820;2022-09-13T14:41:20;96507.94;;;28.22;36.22
70968;BME280;58629;48.808;8.820;2022-09-13T14:43:47;96510.91;;;27.96;37.97
70968;BME280;58629;48.808;8.820;2022-09-13T14:48:54;96494.03;;;27.69;38.35
70968;BME280;58629;48.808;8.820;2022-09-13T14:51:25;96486.38;;;27.60;37.79
70968;BME280;58629;48.808;8.820;2022-09-13T14:54:20;96485.31;;;27.63;37.59
70968;BME280;58629;48.808;8.820;2022-09-13T14:56:53;96485.00;;;27.74;36.34
70968;BME280;58629;48.808;8.820;2022-09-13T14:59:43;96473.97;;;27.80;35.88
70968;BME280;58629;48.808;8.820;2022-09-13T15:02:24;96463.84;;;27.88;39.37
70968;BME280;58629;48.808;8.820;2022-09-13T15:04:53;96469.09;;;27.86;37.85
70968;BME280;58629;48.808;8.820;2022-09-13T15:07:31;96460.19;;;27.85;36.91
70968;BME280;58629;48.808;8.820;2022-09-13T15:12:33;96459.72;;;27.59;40.39
70968;BME280;58629;48.808;8.820;2022-09-13T15:18:00;96459.59;;;26.95;43.06
70968;BME280;58629;48.808;8.820;2022-09-13T15:20:28;96460.72;;;26.79;43.78
70968;BME280;58629;48.808;8.820;2022-09-13T15:22:54;96462.94;;;26.67;44.79
70968;BME280;58629;48.808;8.820;2022-09-13T15:25:26;96446.81;;;26.48;44.65
70968;BME280;58629;48.808;8.820;2022-09-13T15:27:54;96449.19;;;26.31;43.84
70968;BME280;58629;48.808;8.820;2022-09-13T15:30:29;96437.25;;;26.14;43.77
70968;BME280;58629;48.808;8.820;2022-09-13T15:35:38;96439.44;;;25.89;44.04
70968;BME280;58629;48.808;8.820;2022-09-13T15:38:26;96433.09;;;25.73;44.19
70968;BME280;58629;48.808;8.820;2022-09-13T15:41:08;96430.63;;;25.62;44.97
70968;BME280;58629;48.808;8.820;2022-09-13T15:43:36;96424.97;;;25.47;43.67
70968;BME280;58629;48.808;8.820;2022-09-13T15:46:01;96412.38;;;25.37;44.68
70968;BME280;58629;48.808;8.820;2022-09-13T15:48:32;96415.78;;;25.24;44.12
70968;BME280;58629;48.808;8.820;2022-09-13T15:51:07;96411.81;;;25.12;45.08
70968;BME280;58629;48.808;8.820;2022-09-13T15:53:34;96409.75;;;25.05;44.59
70968;BME280;58629;48.808;8.820;2022-09-13T15:56:01;96406.72;;;24.96;45.09
70968;BME280;58629;48.808;8.820;2022-09-13T15:58:26;96404.06;;;24.90;45.65
70968;BME280;58629;48.808;8.820;2022-09-13T16:00:52;96402.00;;;24.83;45.98
70968;BME280;58629;48.808;8.820;2022-09-13T16:03:17;96397.25;;;24.70;44.76
70968;BME280;58629;48.808;8.820;2022-09-13T16:05:43;96405.16;;;24.68;45.89
70968;BME280;58629;48.808;8.820;2022-09-13T16:08:10;96405.34;;;24.57;45.16
70968;BME280;58629;48.808;8.820;2022-09-13T16:10:36;96402.19;;;24.53;45.83
70968;BME280;58629;48.808;8.820;2022-09-13T16:13:01;96396.66;;;24.46;45.25
70968;BME280;58629;48.808;8.820;2022-09-13T16:15:26;96397.97;;;24.39;45.45
70968;BME280;58629;48.808;8.820;2022-09-13T16:17:52;96401.31;;;24.32;45.97
70968;BME280;58629;48.808;8.820;2022-09-13T16:20:18;96401.88;;;24.25;45.28
70968;BME280;58629;48.808;8.820;2022-09-13T16:22:44;96402.72;;;24.20;45.51
70968;BME280;58629;48.808;8.820;2022-09-13T16:25:12;96404.53;;;24.12;45.30
70968;BME280;58629;48.808;8.820;2022-09-13T16:27:37;96409.81;;;24.04;48.74
70968;BME280;58629;48.808;8.820;2022-09-13T16:30:04;96411.00;;;23.85;50.88
70968;BME280;58629;48.808;8.820;2022-09-13T16:32:30;96403.84;;;23.69;51.44
70968;BME280;58629;48.808;8.820;2022-09-13T17:04:57;96387.72;;;22.91;51.97
70968;BME280;58629;48.808;8.820;2022-09-13T17:07:22;96381.13;;;22.86;51.95
70968;BME280;58629;48.808;8.820;2022-09-13T17:09:48;96388.31;;;22.78;52.34
70968;BME280;58629;48.808;8.820;2022-09-13T17:12:13;96383.47;;;22.71;52.16
70968;BME280;58629;48.808;8.820;2022-09-13T17:14:40;96385.72;;;22.67;53.44
70968;BME280;58629;48.808;8.820;2022-09-13T17:17:12;96378.66;;;22.59;53.97
70968;BME280;58629;48.808;8.820;2022-09-13T17:19:38;96386.31;;;22.49;54.18
70968;BME280;58629;48.808;8.820;2022-09-13T17:22:04;96378.28;;;22.43;54.50
70968;BME280;58629;48.808;8.820;2022-09-13T17:24:32;96380.56;;;22.34;59.17
70968;BME280;58629;48.808;8.820;2022-09-13T17:26:58;96370.31;;;22.27;58.50
70968;BME280;58629;48.808;8.820;2022-09-13T17:29:24;96377.19;;;22.22;59.53
70968;BME280;58629;48.808;8.820;2022-09-13T17:31:55;96375.09;;;22.10;60.88
70968;BME280;58629;48.808;8.820;2022-09-13T17:34:20;96369.00;;;22.04;61.57
70968;BME280;58629;48.808;8.820;2022-09-13T17:36:45;96375.13;;;21.99;62.42
70968;BME280;58629;48.808;8.820;2022-09-13T17:39:10;96367.59;;;21.92;62.95
70968;BME280;58629;48.808;8.820;2022-09-13T17:41:36;96361.75;;;21.88;63.82
70968;BME280;58629;48.808;8.820;2022-09-13T17:44:01;96373.53;;;21.85;63.56
70968;BME280;58629;48.808;8.820;2022-09-13T17:46:27;96372.56;;;21.77;66.42
70968;BME280;58629;48.808;8.820;2022-09-13T17:48:55;96372.59;;;21.66;66.91
70968;BME280;58629;48.808;8.820;2022-09-13T17:51:24;96370.69;;;21.61;67.72
70968;BME280;58629;48.808;8.820;2022-09-13T17:53:59;96376.84;;;21.50;67.48
70968;BME280;58629;48.808;8.820;2022-09-13T17:56:28;96373.44;;;21.44;67.57
70968;BME280;58629;48.808;8.820;2022-09-13T17:58:56;96368.34;;;21.35;67.01
70968;BME280;58629;48.808;8.820;2022-09-13T18:01:22;96365.41;;;21.27;67.35
70968;BME280;58629;48.808;8.820;2022-09-13T18:03:47;96368.84;;;21.22;67.08
70968;BME280;58629;48.808;8.820;2022-09-13T18:06:12;96369.38;;;21.15;67.49
70968;BME280;58629;48.808;8.820;2022-09-13T18:08:39;96369.63;;;21.06;68.77
70968;BME280;58629;48.808;8.820;2022-09-13T18:13:33;96375.25;;;20.86;70.03
70968;BME280;58629;48.808;8.820;2022-09-13T18:16:03;96376.50;;;20.80;69.83
70968;BME280;58629;48.808;8.820;2022-09-13T18:18:28;96381.16;;;20.68;70.75
70968;BME280;58629;48.808;8.820;2022-09-13T18:20:55;96381.19;;;20.51;68.05
70968;BME280;58629;48.808;8.820;2022-09-13T18:23:21;96393.88;;;20.29;65.83
70968;BME280;58629;48.808;8.820;2022-09-13T18:26:04;96393.13;;;20.23;65.32
70968;BME280;58629;48.808;8.820;2022-09-13T18:28:30;96394.53;;;20.13;64.39
70968;BME280;58629;48.808;8.820;2022-09-13T18:30:57;96393.34;;;20.08;65.55
70968;BME280;58629;48.808;8.820;2022-09-13T18:33:24;96391.13;;;20.07;65.77
70968;BME280;58629;48.808;8.820;2022-09-13T18:38:24;96397.47;;;19.98;67.77
70968;BME280;58629;48.808;8.820;2022-09-13T18:41:18;96402.09;;;19.92;68.37
70968;BME280;58629;48.808;8.820;2022-09-13T18:43:48;96403.28;;;19.85;68.19
70968;BME280;58629;48.808;8.820;2022-09-13T18:46:18;96399.59;;;19.83;68.31
70968;BME280;58629;48.808;8.820;2022-09-13T18:48:46;96403.28;;;19.80;68.86
70968;BME280;58629;48.808;8.820;2022-09-13T18:51:14;96408.84;;;19.71;70.75
70968;BME280;58629;48.808;8.820;2022-09-13T18:53:40;96414.94;;;19.66;71.36
70968;BME280;58629;48.808;8.820;2022-09-13T18:56:09;96407.88;;;19.63;71.42
70968;BME280;58629;48.808;8.820;2022-09-13T18:58:37;96408.31;;;19.61;71.81
70968;BME280;58629;48.808;8.820;2022-09-13T19:01:05;96415.88;;;19.57;72.97
70968;BME280;58629;48.808;8.820;2022-09-13T19:03:31;96418.81;;;19.54;73.43
70968;BME280;58629;48.808;8.820;2022-09-13T19:06:37;96418.53;;;19.46;74.83
70968;BME280;58629;48.808;8.820;2022-09-13T19:09:04;96425.56;;;19.38;75.25
70968;BME280;58629;48.808;8.820;2022-09-13T19:11:34;96422.63;;;19.36;75.20
70968;BME280;58629;48.808;8.820;2022-09-13T19:14:00;96426.00;;;19.31;75.10
70968;BME280;58629;48.808;8.820;2022-09-13T19:16:25;96426.19;;;19.22;74.37
70968;BME280;58629;48.808;8.820;2022-09-13T19:18:51;96435.47;;;19.21;74.20
70968;BME280;58629;48.808;8.820;2022-09-13T19:21:25;96432.25;;;19.17;74.74
70968;BME280;58629;48.808;8.820;2022-09-13T19:23:53;96432.22;;;19.12;73.86
70968;BME280;58629;48.808;8.820;2022-09-13T19:26:24;96431.84;;;18.93;72.22
70968;BME280;58629;48.808;8.820;2022-09-13T19:28:56;96443.28;;;18.88;72.78
70968;BME280;58629;48.808;8.820;2022-09-13T19:31:32;96439.78;;;18.76;70.66
70968;BME280;58629;48.808;8.820;2022-09-13T19:33:59;96441.25;;;18.77;71.39
70968;BME280;58629;48.808;8.820;2022-09-13T19:36:29;96446.34;;;18.75;71.83
70968;BME280;58629;48.808;8.820;2022-09-13T19:38:56;96432.47;;;18.77;72.07
70968;BME280;58629;48.808;8.820;2022-09-13T19:41:23;96442.72;;;18.78;72.39
70968;BME280;58629;48.808;8.820;2022-09-13T19:43:51;96450.25;;;18.74;72.85
70968;BME280;58629;48.808;8.820;2022-09-13T19:46:19;96450.72;;;18.73;74.63
70968;BME280;58629;48.808;8.820;2022-09-13T19:48:48;96447.00;;;18.65;75.88
70968;BME280;58629;48.808;8.820;2022-09-13T19:51:22;96446.69;;;18.57;76.04
70968;BME280;58629;48.808;8.820;2022-09-13T19:53:52;96437.91;;;18.57;76.89
70968;BME280;58629;48.808;8.820;2022-09-13T19:56:22;96438.38;;;18.55;77.64
70968;BME280;58629;48.808;8.820;2022-09-13T19:58:48;96431.75;;;18.51;77.73
70968;BME280;58629;48.808;8.820;2022-09-13T20:01:16;96431.75;;;18.51;77.51
70968;BME280;58629;48.808;8.820;2022-09-13T20:03:43;96423.94;;;18.47;77.59
70968;BME280;58629;48.808;8.820;2022-09-13T20:06:10;96421.47;;;18.44;77.54
70968;BME280;58629;48.808;8.820;2022-09-13T20:08:37;96420.72;;;18.43;77.50
70968;BME280;58629;48.808;8.820;2022-09-13T20:11:09;96410.91;;;18.40;77.72
70968;BME280;58629;48.808;8.820;2022-09-13T20:13:38;96405.78;;;18.37;78.03
70968;BME280;58629;48.808;8.820;2022-09-13T20:16:34;96412.34;;;18.36;79.34
70968;BME280;58629;48.808;8.820;2022-09-13T20:19:00;96411.84;;;18.32;78.90
70968;BME280;58629;48.808;8.820;2022-09-13T20:21:28;96408.63;;;18.28;79.65
70968;BME280;58629;48.808;8.820;2022-09-13T20:23:55;96402.25;;;18.25;79.41
70968;BME280;58629;48.808;8.820;2022-09-13T20:26:23;96404.69;;;18.23;79.59
70968;BME280;58629;48.808;8.820;2022-09-13T20:28:54;96413.41;;;18.18;79.16
70968;BME280;58629;48.808;8.820;2022-09-13T20:31:20;96418.25;;;18.14;79.67
70968;BME280;58629;48.808;8.820;2022-09-13T20:33:46;96410.59;;;18.07;79.45
70968;BME280;58629;48.808;8.820;2022-09-13T20:36:12;96400.63;;;18.07;80.04
70968;BME280;58629;48.808;8.820;2022-09-13T20:38:39;96400.63;;;18.07;80.44
70968;BME280;58629;48.808;8.820;2022-09-13T20:41:07;96402.78;;;18.03;80.96
70968;BME280;58629;48.808;8.820;2022-09-13T20:43:34;96402.75;;;17.98;81.23
70968;BME280;58629;48.808;8.820;2022-09-13T20:46:02;96407.28;;;17.92;80.58
70968;BME280;58629;48.808;8.820;2022-09-13T20:48:27;96408.38;;;17.80;80.94
70968;BME280;58629;48.808;8.820;2022-09-13T20:51:04;96398.28;;;17.69;81.92
70968;BME280;58629;48.808;8.820;2022-09-13T20:53:31;96390.50;;;17.71;81.77
70968;BME280;58629;48.808;8.820;2022-09-13T20:56:14;96384.22;;;17.74;82.16
70968;BME280;58629;48.808;8.820;2022-09-13T20:58:41;96381.53;;;17.74;80.73
70968;BME280;58629;48.808;8.820;2022-09-13T21:01:09;96390.03;;;17.73;79.04
70968;BME280;58629;48.808;8.820;2022-09-13T21:03:38;96391.78;;;17.76;80.13
70968;BME280;58629;48.808;8.820;2022-09-13T21:06:05;96397.13;;;17.76;81.29
70968;BME280;58629;48.808;8.820;2022-09-13T21:08:30;96391.25;;;17.72;81.56
70968;BME280;58629;48.808;8.820;2022-09-13T21:11:13;96399.50;;;17.68;81.21
70968;BME280;58629;48.808;8.820;2022-09-13T21:13:41;96393.88;;;17.66;80.58
70968;BME280;58629;48.808;8.820;2022-09-13T21:16:09;96387.50;;;17.64;80.21
70968;BME280;58629;48.808;8.820;2022-09-13T21:18:35;96371.91;;;17.62;77.83
70968;BME280;58629;48.808;8.820;2022-09-13T21:21:02;96370.03;;;17.68;78.60
70968;BME280;58629;48.808;8.820;2022-09-13T21:23:32;96362.28;;;17.70;77.99
70968;BME280;58629;48.808;8.820;2022-09-13T21:26:05;96366.88;;;17.70;79.24